createdAt,value
2023-01-07T00:00:22.467Z,83.00
2023-01-07T00:03:11.840Z,83.10
2023-01-07T00:05:40.851Z,83.00
2023-01-07T00:08:08.856Z,83.00
2023-01-07T00:10:36.748Z,83.00
2023-01-07T00:13:05.002Z,83.00
2023-01-07T00:15:32.831Z,83.10
2023-01-07T00:18:00.911Z,83.20
2023-01-07T00:20:29.008Z,83.20
2023-01-07T00:22:57.571Z,83.20
2023-01-07T00:25:25.803Z,83.20
2023-01-07T00:27:53.846Z,83.20
2023-01-07T00:30:23.204Z,83.20
2023-01-07T00:33:00.114Z,83.10
2023-01-07T00:35:28.639Z,83.10
2023-01-07T00:37:56.976Z,83.30
2023-01-07T00:40:24.844Z,83.20
2023-01-07T00:42:57.160Z,83.20
2023-01-07T00:45:26.999Z,83.30
2023-01-07T00:47:55.089Z,83.30
2023-01-07T00:50:25.417Z,83.40
2023-01-07T00:52:54.097Z,83.30
2023-01-07T00:55:22.655Z,83.20
2023-01-07T00:57:50.735Z,83.30
2023-01-07T01:00:21.004Z,83.20
2023-01-07T01:02:50.325Z,83.20
2023-01-07T01:05:18.815Z,83.20
2023-01-07T01:07:47.408Z,83.20
2023-01-07T01:10:18.749Z,83.20
2023-01-07T01:12:49.481Z,83.20
2023-01-07T01:15:17.530Z,83.20
2023-01-07T01:17:45.573Z,83.10
2023-01-07T01:20:15.791Z,83.10
2023-01-07T01:22:44.190Z,83.20
2023-01-07T01:25:12.797Z,83.20
2023-01-07T01:27:41.202Z,83.20
2023-01-07T01:30:09.374Z,83.20
2023-01-07T01:32:41.294Z,83.20
2023-01-07T01:35:09.607Z,83.10
2023-01-07T01:37:37.667Z,83.10
2023-01-07T01:40:07.525Z,83.10
2023-01-07T01:42:35.678Z,83.10
2023-01-07T01:45:06.607Z,83.10
2023-01-07T01:47:47.027Z,83.20
2023-01-07T01:50:39.952Z,83.10
2023-01-07T01:53:36.000Z,83.10
2023-01-07T01:56:08.835Z,83.20
2023-01-07T01:58:46.324Z,83.00
2023-01-07T02:01:14.627Z,83.00
2023-01-07T02:03:43.276Z,83.00
2023-01-07T02:06:24.428Z,82.70
2023-01-07T02:08:54.438Z,82.70
2023-01-07T02:11:42.058Z,82.70
2023-01-07T02:14:27.857Z,82.90
2023-01-07T02:17:27.891Z,82.90
2023-01-07T02:20:26.859Z,82.90
2023-01-07T02:23:12.612Z,82.80
2023-01-07T02:26:07.062Z,83.00
2023-01-07T02:29:12.162Z,83.00
2023-01-07T02:32:17.521Z,83.00
2023-01-07T02:35:16.149Z,82.90
2023-01-07T02:38:27.620Z,82.80
2023-01-07T02:41:16.598Z,82.80
2023-01-07T02:44:12.003Z,82.70
2023-01-07T02:46:47.731Z,82.70
2023-01-07T02:49:17.654Z,82.80
2023-01-07T02:51:46.792Z,82.90
2023-01-07T02:54:19.996Z,83.00
2023-01-07T02:57:04.305Z,83.00
2023-01-07T03:00:19.410Z,83.10
2023-01-07T03:02:49.979Z,83.10
2023-01-07T03:05:45.112Z,83.00
2023-01-07T03:08:52.791Z,83.00
2023-01-07T03:11:24.005Z,82.90
2023-01-07T03:14:20.568Z,82.90
2023-01-07T03:16:58.357Z,83.00
2023-01-07T03:19:32.170Z,83.00
2023-01-07T03:22:02.798Z,83.00
2023-01-07T03:24:32.967Z,82.90
2023-01-07T03:27:05.359Z,82.80
2023-01-07T03:29:35.932Z,82.90
2023-01-07T03:32:09.669Z,83.00
2023-01-07T03:34:38.833Z,82.90
2023-01-07T03:37:14.365Z,82.90
2023-01-07T03:39:45.489Z,82.90
2023-01-07T03:42:33.855Z,83.00
2023-01-07T03:45:02.402Z,82.90
2023-01-07T03:47:34.125Z,82.80
2023-01-07T03:50:02.372Z,82.90
2023-01-07T03:52:30.481Z,82.90
2023-01-07T03:54:58.479Z,82.90
2023-01-07T03:57:26.679Z,82.90
2023-01-07T03:59:54.426Z,82.90
2023-01-07T04:02:22.566Z,82.90
2023-01-07T04:04:50.461Z,82.90
2023-01-07T04:07:19.786Z,82.80
2023-01-07T04:09:47.492Z,82.80
2023-01-07T04:12:15.549Z,82.80
2023-01-07T04:14:44.207Z,82.80
2023-01-07T04:17:13.662Z,82.80
2023-01-07T04:19:41.420Z,82.80
2023-01-07T04:22:12.765Z,82.90
2023-01-07T04:24:40.540Z,82.90
2023-01-07T04:27:11.260Z,82.90
2023-01-07T04:29:39.233Z,82.90
2023-01-07T04:32:07.388Z,82.80
2023-01-07T04:34:35.312Z,82.90
2023-01-07T04:37:04.273Z,82.80
2023-01-07T04:39:32.119Z,82.80
2023-01-07T04:42:00.234Z,82.80
2023-01-07T04:44:28.983Z,82.80
2023-01-07T04:46:57.986Z,82.80
2023-01-07T04:49:26.759Z,82.70
2023-01-07T04:51:56.307Z,82.80
2023-01-07T04:54:24.070Z,82.80
2023-01-07T04:56:52.739Z,82.80
2023-01-07T04:59:20.981Z,82.80
2023-01-07T05:01:49.866Z,82.70
2023-01-07T05:04:17.903Z,82.70
2023-01-07T05:06:47.123Z,82.80
2023-01-07T05:09:16.001Z,82.70
2023-01-07T05:11:45.387Z,82.60
2023-01-07T05:14:13.871Z,82.60
2023-01-07T05:16:42.523Z,82.60
2023-01-07T05:19:12.119Z,82.60
2023-01-07T05:21:46.402Z,82.70
2023-01-07T05:24:39.472Z,82.70
2023-01-07T05:27:08.002Z,82.70
2023-01-07T05:29:37.343Z,82.70
2023-01-07T05:32:06.547Z,82.70
2023-01-07T05:34:35.870Z,82.70
2023-01-07T05:37:04.421Z,82.70
2023-01-07T05:39:34.981Z,82.60
2023-01-07T05:42:07.818Z,82.50
2023-01-07T05:44:35.728Z,82.50
2023-01-07T05:47:03.883Z,82.50
2023-01-07T05:49:31.529Z,82.50
2023-01-07T05:51:59.692Z,82.50
2023-01-07T05:54:27.459Z,82.50
2023-01-07T05:56:55.816Z,82.50
2023-01-07T05:59:23.502Z,82.50
2023-01-07T06:02:18.054Z,82.50
2023-01-07T06:04:45.831Z,82.50
2023-01-07T06:07:14.121Z,82.50
2023-01-07T06:09:41.882Z,82.50
2023-01-07T06:12:09.870Z,82.50
2023-01-07T06:14:37.577Z,82.60
2023-01-07T06:17:05.591Z,82.60
2023-01-07T06:19:33.353Z,82.60
2023-01-07T06:22:01.555Z,82.60
2023-01-07T06:24:29.350Z,82.60
2023-01-07T06:26:57.391Z,82.70
2023-01-07T06:29:25.153Z,82.60
2023-01-07T06:31:53.372Z,82.60
2023-01-07T06:34:21.143Z,82.60
2023-01-07T06:36:49.135Z,82.70
2023-01-07T06:39:16.907Z,82.70
2023-01-07T06:44:36.271Z,82.70
2023-01-07T06:47:04.449Z,82.60
2023-01-07T06:49:32.179Z,82.70
2023-01-07T06:52:00.189Z,82.70
2023-01-07T06:54:28.840Z,82.60
2023-01-07T06:56:56.851Z,82.70
2023-01-07T06:59:24.602Z,82.70
2023-01-07T07:01:52.811Z,82.80
2023-01-07T07:04:20.676Z,82.80
2023-01-07T07:06:49.455Z,82.90
2023-01-07T07:09:17.135Z,82.80
2023-01-07T07:11:45.288Z,82.80
2023-01-07T07:14:13.071Z,82.90
2023-01-07T07:16:41.098Z,82.90
2023-01-07T07:19:08.767Z,82.90
2023-01-07T07:21:37.022Z,82.90
2023-01-07T07:24:05.157Z,83.00
2023-01-07T07:26:33.274Z,83.00
2023-01-07T07:29:00.940Z,83.10
2023-01-07T07:31:29.970Z,83.10
2023-01-07T07:33:57.916Z,83.20
2023-01-07T07:36:26.000Z,83.10
2023-01-07T07:38:53.744Z,83.20
2023-01-07T07:41:23.238Z,83.20
2023-01-07T07:43:52.517Z,83.30
2023-01-07T07:46:20.661Z,83.30
2023-01-07T07:48:52.032Z,83.20
2023-01-07T07:51:20.162Z,83.30
2023-01-07T07:53:50.471Z,83.20
2023-01-07T07:56:18.595Z,83.10
2023-01-07T07:58:46.292Z,83.20
2023-01-07T08:01:14.479Z,83.20
2023-01-07T08:03:43.525Z,83.20
2023-01-07T08:06:13.498Z,83.20
2023-01-07T08:08:42.776Z,83.10
2023-01-07T08:11:11.183Z,83.00
2023-01-07T08:13:38.973Z,82.90
2023-01-07T08:16:07.241Z,82.90
2023-01-07T08:18:38.526Z,82.90
2023-01-07T08:21:06.737Z,82.90
2023-01-07T08:23:35.200Z,83.00
2023-01-07T08:26:04.415Z,83.20
2023-01-07T08:28:32.881Z,83.10
2023-01-07T08:31:08.486Z,83.00
2023-01-07T08:33:38.819Z,83.00
2023-01-07T08:36:21.750Z,83.00
2023-01-07T08:38:52.444Z,83.00
2023-01-07T08:41:25.374Z,82.90
2023-01-07T08:43:54.154Z,82.90
2023-01-07T08:46:22.993Z,83.00
2023-01-07T08:48:51.329Z,82.80
2023-01-07T08:51:19.367Z,82.60
2023-01-07T08:53:47.986Z,82.50
2023-01-07T08:56:16.156Z,82.40
2023-01-07T08:58:44.655Z,82.30
2023-01-07T09:01:12.911Z,82.40
2023-01-07T09:03:40.758Z,82.40
2023-01-07T09:06:09.618Z,82.50
2023-01-07T09:08:37.453Z,82.70
2023-01-07T09:11:06.731Z,82.80
2023-01-07T09:13:35.218Z,82.80
2023-01-07T09:16:03.598Z,83.00
2023-01-07T09:18:31.765Z,83.00
2023-01-07T09:21:01.578Z,83.00
2023-01-07T09:23:31.189Z,82.60
2023-01-07T09:26:00.226Z,82.40
2023-01-07T09:28:28.557Z,82.20
2023-01-07T09:30:57.004Z,82.00
2023-01-07T09:33:25.335Z,82.10
2023-01-07T09:35:54.388Z,82.00
2023-01-07T09:38:22.329Z,82.10
2023-01-07T09:40:51.106Z,82.00
2023-01-07T09:43:59.398Z,81.70
2023-01-07T09:46:22.996Z,82.00
2023-01-07T09:48:58.361Z,82.60
2023-01-07T09:51:33.539Z,82.40
2023-01-07T09:54:04.297Z,83.50
2023-01-07T09:56:35.178Z,83.30
2023-01-07T09:59:05.908Z,82.50
2023-01-07T10:01:40.241Z,81.50
2023-01-07T10:04:11.417Z,79.80
2023-01-07T10:06:59.310Z,80.20
2023-01-07T10:09:41.866Z,78.90
2023-01-07T10:12:25.318Z,77.70
2023-01-07T10:14:53.006Z,77.10
2023-01-07T10:17:41.627Z,75.50
2023-01-07T10:20:35.489Z,75.80
2023-01-07T10:23:11.521Z,75.10
2023-01-07T10:25:49.525Z,72.80
2023-01-07T10:28:36.324Z,72.10
2023-01-07T10:31:07.224Z,72.80
2023-01-07T10:33:35.309Z,74.60
2023-01-07T10:36:47.700Z,75.10
2023-01-07T10:39:34.747Z,75.40
2023-01-07T10:42:20.388Z,75.80
2023-01-07T10:44:57.397Z,78.60
2023-01-07T10:47:54.557Z,77.50
2023-01-07T10:50:37.819Z,77.10
2023-01-07T10:53:33.140Z,75.50
2023-01-07T10:56:20.588Z,73.20
2023-01-07T10:58:49.732Z,73.10
2023-01-07T11:01:32.275Z,72.20
2023-01-07T11:04:01.467Z,71.90
2023-01-07T11:06:57.832Z,71.60
2023-01-07T11:09:30.005Z,70.50
2023-01-07T11:12:02.504Z,71.20
2023-01-07T11:17:54.261Z,70.50
2023-01-07T11:20:51.939Z,70.70
2023-01-07T11:23:43.941Z,70.50
2023-01-07T11:26:17.059Z,70.40
2023-01-07T11:29:24.416Z,69.00
2023-01-07T11:31:57.452Z,68.50
2023-01-07T11:35:01.089Z,67.80
2023-01-07T11:37:36.080Z,68.50
2023-01-07T11:40:17.916Z,68.30
2023-01-07T11:42:53.301Z,67.90
2023-01-07T11:45:25.763Z,68.20
2023-01-07T11:48:07.159Z,68.90
2023-01-07T11:50:44.156Z,69.40
2023-01-07T11:53:15.702Z,70.00
2023-01-07T11:55:58.581Z,70.90
2023-01-07T11:58:30.939Z,70.10
2023-01-07T12:01:14.203Z,68.20
2023-01-07T12:03:43.998Z,67.60
2023-01-07T12:06:12.071Z,66.50
2023-01-07T12:08:50.970Z,65.70
2023-01-07T12:11:19.137Z,64.70
2023-01-07T12:13:53.372Z,63.70
2023-01-07T12:16:30.916Z,62.80
2023-01-07T12:19:21.700Z,63.70
2023-01-07T12:22:00.108Z,64.10
2023-01-07T12:24:58.362Z,64.00
2023-01-07T12:28:01.675Z,65.60
2023-01-07T12:30:54.874Z,64.70
2023-01-07T12:33:32.385Z,64.80
2023-01-07T12:36:09.394Z,64.80
2023-01-07T12:38:53.516Z,65.00
2023-01-07T12:41:36.397Z,65.70
2023-01-07T12:44:17.063Z,66.70
2023-01-07T12:47:31.088Z,66.00
2023-01-07T12:50:14.129Z,65.40
2023-01-07T12:53:02.521Z,64.30
2023-01-07T12:55:36.145Z,64.40
2023-01-07T12:58:26.605Z,65.10
2023-01-07T13:01:14.114Z,65.40
2023-01-07T13:03:55.522Z,65.70
2023-01-07T13:06:45.248Z,65.70
2023-01-07T13:09:37.597Z,66.30
2023-01-07T13:12:42.559Z,66.70
2023-01-07T13:15:30.012Z,66.50
2023-01-07T13:18:03.207Z,66.50
2023-01-07T13:20:51.610Z,66.50
2023-01-07T13:23:27.945Z,66.40
2023-01-07T13:26:13.932Z,65.80
2023-01-07T13:29:14.389Z,65.60
2023-01-07T13:32:00.050Z,65.40
2023-01-07T13:34:59.442Z,64.90
2023-01-07T13:37:45.799Z,64.80
2023-01-07T13:40:36.964Z,64.80
2023-01-07T13:43:35.470Z,65.20
2023-01-07T13:46:10.610Z,65.40
2023-01-07T13:48:41.223Z,65.60
2023-01-07T13:51:10.853Z,65.80
2023-01-07T13:53:41.981Z,66.10
2023-01-07T13:56:19.365Z,66.90
2023-01-07T13:58:48.226Z,66.80
2023-01-07T14:01:33.838Z,66.30
2023-01-07T14:04:21.598Z,65.50
2023-01-07T14:06:52.841Z,65.40
2023-01-07T14:09:33.217Z,65.80
2023-01-07T14:12:13.455Z,66.00
2023-01-07T14:15:21.305Z,66.20
2023-01-07T14:18:09.181Z,66.40
2023-01-07T14:20:50.876Z,65.40
2023-01-07T14:23:43.164Z,64.90
2023-01-07T14:44:30.757Z,66.20
2023-01-07T14:46:59.291Z,65.50
2023-01-07T14:50:16.345Z,65.20
2023-01-07T14:53:20.442Z,65.10
2023-01-07T14:56:25.747Z,65.00
2023-01-07T14:58:58.771Z,65.20
2023-01-07T15:02:04.321Z,65.40
2023-01-07T15:05:02.971Z,65.80
2023-01-07T15:07:36.148Z,66.10
2023-01-07T15:10:49.896Z,66.30
2023-01-07T15:13:39.626Z,66.60
2023-01-07T15:16:12.060Z,66.80
2023-01-07T15:18:52.167Z,67.20
2023-01-07T15:21:35.513Z,67.10
2023-01-07T15:24:35.419Z,67.40
2023-01-07T15:27:12.012Z,67.80
2023-01-07T15:30:07.020Z,67.90
2023-01-07T15:33:08.341Z,68.10
2023-01-07T15:35:41.942Z,68.20
2023-01-07T15:38:31.951Z,68.20
2023-01-07T15:41:01.139Z,68.50
2023-01-07T15:43:31.183Z,68.50
2023-01-07T15:46:03.411Z,68.60
2023-01-07T15:48:34.694Z,68.70
2023-01-07T15:51:02.477Z,68.90
2023-01-07T15:53:32.166Z,69.00
2023-01-07T15:56:10.844Z,69.10
2023-01-07T15:58:46.075Z,69.20
2023-01-07T16:01:23.412Z,69.20
2023-01-07T16:03:56.980Z,69.30
2023-01-07T16:06:46.512Z,69.30
2023-01-07T16:09:19.239Z,69.40
2023-01-07T16:11:47.991Z,69.40
2023-01-07T16:14:18.999Z,69.50
2023-01-07T16:16:47.285Z,69.70
2023-01-07T16:19:21.206Z,69.80
2023-01-07T16:21:56.118Z,69.70
2023-01-07T16:24:24.907Z,69.80
2023-01-07T16:27:04.928Z,69.90
2023-01-07T16:29:49.885Z,70.00
2023-01-07T16:32:19.488Z,70.00
2023-01-07T16:34:50.174Z,70.10
2023-01-07T16:37:18.937Z,70.10
2023-01-07T16:39:51.536Z,70.10
2023-01-07T16:42:27.711Z,70.10
2023-01-07T16:45:43.616Z,70.20
2023-01-07T16:48:21.690Z,70.30
2023-01-07T16:50:50.243Z,70.20
2023-01-07T16:53:27.443Z,70.20
2023-01-07T16:56:08.350Z,70.30
2023-01-07T16:58:56.482Z,70.50
2023-01-07T17:01:35.299Z,70.50
2023-01-07T17:04:09.203Z,70.50
2023-01-07T17:06:42.837Z,70.50
2023-01-07T17:09:25.584Z,70.60
2023-01-07T17:11:54.683Z,70.70
2023-01-07T17:14:41.220Z,70.70
2023-01-07T17:17:38.881Z,70.80
2023-01-07T17:20:12.195Z,70.80
2023-01-07T17:22:40.718Z,70.70
2023-01-07T17:25:14.995Z,70.80
2023-01-07T17:27:50.059Z,70.90
2023-01-07T17:30:22.739Z,71.00
2023-01-07T17:32:51.375Z,71.10
2023-01-07T17:35:22.414Z,71.10
2023-01-07T17:37:51.412Z,71.10
2023-01-07T17:40:20.919Z,71.20
2023-01-07T17:43:10.609Z,70.90
2023-01-07T17:45:38.574Z,70.90
2023-01-07T17:48:14.073Z,71.00
2023-01-07T17:50:43.369Z,71.00
2023-01-07T17:53:23.212Z,71.20
2023-01-07T17:55:51.624Z,71.20
2023-01-07T17:58:34.527Z,71.20
2023-01-07T18:01:10.401Z,71.30
2023-01-07T18:03:38.640Z,71.40
2023-01-07T18:06:31.326Z,71.40
2023-01-07T18:09:00.542Z,71.50
2023-01-07T18:11:48.170Z,71.50
2023-01-07T18:14:16.872Z,71.50
2023-01-07T18:16:44.840Z,71.60
2023-01-07T18:19:14.715Z,71.60
2023-01-07T18:21:42.807Z,71.70
2023-01-07T18:24:20.189Z,71.70
2023-01-07T18:26:48.895Z,71.80
2023-01-07T18:29:18.202Z,71.90
2023-01-07T18:31:46.565Z,71.90
2023-01-07T18:34:16.033Z,71.90
2023-01-07T18:36:45.280Z,71.90
2023-01-07T18:39:19.896Z,72.00
2023-01-07T18:41:51.749Z,72.10
2023-01-07T18:44:22.257Z,72.10
2023-01-07T18:46:51.346Z,72.20
2023-01-07T18:49:21.546Z,72.20
2023-01-07T18:51:49.852Z,72.30
2023-01-07T18:54:18.177Z,72.50
2023-01-07T18:56:47.332Z,72.50
2023-01-07T18:59:15.755Z,72.70
2023-01-07T19:01:43.839Z,72.80
2023-01-07T19:04:12.051Z,72.80
2023-01-07T19:06:40.663Z,72.80
2023-01-07T19:09:09.117Z,72.70
2023-01-07T19:11:38.982Z,72.60
2023-01-07T19:14:09.372Z,72.60
2023-01-07T19:16:39.295Z,72.50
2023-01-07T19:19:07.638Z,72.50
2023-01-07T19:21:35.857Z,72.60
2023-01-07T19:24:05.405Z,72.60
2023-01-07T19:26:34.148Z,72.70
2023-01-07T19:29:04.256Z,72.90
2023-01-07T19:31:32.246Z,73.00
2023-01-07T19:34:03.323Z,73.10
2023-01-07T19:36:32.030Z,73.10
2023-01-07T19:39:00.315Z,73.10
2023-01-07T19:41:28.541Z,73.00
2023-01-07T19:44:01.212Z,72.90
2023-01-07T19:46:29.302Z,72.80
2023-01-07T19:48:58.757Z,72.70
2023-01-07T19:51:26.782Z,72.90
2023-01-07T19:53:59.005Z,73.00
2023-01-07T19:56:26.854Z,73.10
2023-01-07T19:58:56.194Z,73.20
2023-01-07T20:01:26.696Z,73.20
2023-01-07T20:03:56.233Z,73.20
2023-01-07T20:06:27.061Z,73.30
2023-01-07T20:08:59.345Z,73.10
2023-01-07T20:11:27.987Z,73.10
2023-01-07T20:13:56.190Z,73.20
2023-01-07T20:16:25.083Z,73.20
2023-01-07T20:18:54.980Z,73.20
2023-01-07T20:21:26.658Z,73.20
2023-01-07T20:23:55.533Z,73.30
2023-01-07T20:26:30.262Z,73.40
2023-01-07T20:29:01.899Z,73.40
2023-01-07T20:31:31.358Z,73.70
2023-01-07T20:34:01.504Z,73.80
2023-01-07T20:36:33.075Z,74.00
2023-01-07T20:39:06.079Z,74.10
2023-01-07T20:41:35.534Z,74.10
2023-01-07T20:44:06.628Z,73.80
2023-01-07T20:46:41.531Z,73.70
2023-01-07T20:49:11.459Z,73.60
2023-01-07T20:51:39.911Z,73.40
2023-01-07T20:54:08.966Z,73.40
2023-01-07T20:56:37.236Z,73.50
2023-01-07T20:59:05.301Z,73.60
2023-01-07T21:01:33.398Z,73.70
2023-01-07T21:04:02.331Z,73.80
2023-01-07T21:06:30.452Z,74.10
2023-01-07T21:08:58.583Z,74.00
2023-01-07T21:11:27.519Z,73.80
2023-01-07T21:13:56.659Z,73.70
2023-01-07T21:16:28.727Z,73.70
2023-01-07T21:18:56.935Z,73.80
2023-01-07T21:21:26.069Z,73.80
2023-01-07T21:23:55.358Z,73.90
2023-01-07T21:26:25.080Z,73.90
2023-01-07T21:28:56.530Z,73.90
2023-01-07T21:31:26.941Z,73.90
2023-01-07T21:33:57.877Z,74.00
2023-01-07T21:36:27.632Z,74.10
2023-01-07T21:38:58.096Z,73.90
2023-01-07T21:41:28.368Z,74.10
2023-01-07T21:43:57.893Z,74.20
2023-01-07T21:46:26.330Z,74.30
2023-01-07T21:49:01.060Z,74.30
2023-01-07T21:51:29.197Z,74.20
2023-01-07T21:53:58.292Z,74.10
2023-01-07T21:56:28.921Z,74.20
2023-01-07T21:58:57.784Z,74.20
2023-01-07T22:01:29.027Z,74.20
2023-01-07T22:03:59.367Z,74.20
2023-01-07T22:06:36.912Z,74.40
2023-01-07T22:09:06.548Z,74.50
2023-01-07T22:11:38.900Z,74.60
2023-01-07T22:14:07.700Z,74.40
2023-01-07T22:16:35.584Z,74.20
2023-01-07T22:19:05.368Z,74.20
2023-01-07T22:21:34.497Z,74.20
2023-01-07T22:24:02.712Z,74.20
2023-01-07T22:26:30.941Z,74.20
2023-01-07T22:29:03.158Z,74.20
2023-01-07T22:31:33.847Z,74.50
2023-01-07T22:34:02.441Z,74.70
2023-01-07T22:36:43.755Z,74.80
2023-01-07T22:39:21.095Z,74.90
2023-01-07T22:41:56.057Z,74.80
2023-01-07T22:44:30.903Z,74.90
2023-01-07T22:46:59.157Z,75.00
2023-01-07T22:49:28.685Z,74.90
2023-01-07T22:51:56.587Z,74.80
2023-01-07T22:54:26.150Z,75.00
2023-01-07T22:56:54.277Z,74.90
2023-01-07T22:59:22.385Z,75.00
2023-01-07T23:01:50.059Z,74.70
2023-01-07T23:04:18.126Z,74.70
2023-01-07T23:06:45.914Z,74.80
2023-01-07T23:09:14.175Z,75.00
2023-01-07T23:11:47.829Z,75.00
2023-01-07T23:14:22.654Z,75.00
2023-01-07T23:16:51.625Z,75.10
2023-01-07T23:19:21.396Z,75.30
2023-01-07T23:21:52.062Z,75.20
2023-01-07T23:24:21.090Z,75.00
2023-01-07T23:26:51.141Z,75.20
2023-01-07T23:29:19.580Z,75.20
2023-01-07T23:31:47.554Z,75.20
2023-01-07T23:34:16.096Z,75.10
2023-01-07T23:36:43.831Z,75.10
2023-01-07T23:39:11.862Z,75.00
2023-01-07T23:41:39.587Z,75.10
2023-01-07T23:44:07.912Z,75.10
2023-01-07T23:46:35.585Z,75.20
2023-01-07T23:49:03.666Z,75.20
2023-01-07T23:51:31.352Z,75.40
2023-01-07T23:53:59.330Z,75.40
2023-01-07T23:56:27.062Z,75.30
2023-01-07T23:58:55.104Z,75.40
